sensor_id;sensor_type;location;lat;lon;timestamp;P1;durP1;ratioP1;P2;durP2;ratioP2
84031;SDS011;74113;46.556;24.570;2024-03-02T00:01:54;1.70;;;0.60;;
84031;SDS011;74113;46.556;24.570;2024-03-02T00:04:22;0.70;;;0.30;;
84031;SDS011;74113;46.556;24.570;2024-03-02T00:06:52;1.10;;;0.60;;
84031;SDS011;74113;46.556;24.570;2024-03-02T00:09:24;1.90;;;0.80;;
84031;SDS011;74113;46.556;24.570;2024-03-02T00:11:53;1.70;;;0.80;;
84031;SDS011;74113;46.556;24.570;2024-03-02T00:14:22;2.30;;;0.70;;
84031;SDS011;74113;46.556;24.570;2024-03-02T00:16:52;2.50;;;0.60;;
84031;SDS011;74113;46.556;24.570;2024-03-02T00:19:23;1.50;;;1.00;;
84031;SDS011;74113;46.556;24.570;2024-03-02T00:21:52;1.60;;;0.90;;
84031;SDS011;74113;46.556;24.570;2024-03-02T00:24:21;2.10;;;0.70;;
84031;SDS011;74113;46.556;24.570;2024-03-02T00:27:01;3.00;;;2.70;;
84031;SDS011;74113;46.556;24.570;2024-03-02T00:29:34;0.90;;;0.50;;
84031;SDS011;74113;46.556;24.570;2024-03-02T00:32:03;1.40;;;0.90;;
84031;SDS011;74113;46.556;24.570;2024-03-02T00:34:36;1.40;;;0.70;;
84031;SDS011;74113;46.556;24.570;2024-03-02T00:37:05;1.40;;;0.40;;
84031;SDS011;74113;46.556;24.570;2024-03-02T00:39:34;1.90;;;0.70;;
84031;SDS011;74113;46.556;24.570;2024-03-02T00:42:04;2.70;;;1.20;;
84031;SDS011;74113;46.556;24.570;2024-03-02T00:44:33;2.90;;;0.70;;
84031;SDS011;74113;46.556;24.570;2024-03-02T00:47:03;3.10;;;1.00;;
84031;SDS011;74113;46.556;24.570;2024-03-02T00:49:32;4.20;;;1.00;;
84031;SDS011;74113;46.556;24.570;2024-03-02T00:52:01;2.00;;;0.70;;
84031;SDS011;74113;46.556;24.570;2024-03-02T00:54:30;2.50;;;0.80;;
84031;SDS011;74113;46.556;24.570;2024-03-02T00:56:58;1.70;;;0.50;;
84031;SDS011;74113;46.556;24.570;2024-03-02T00:59:27;2.40;;;2.00;;
84031;SDS011;74113;46.556;24.570;2024-03-02T01:01:56;3.90;;;1.60;;
84031;SDS011;74113;46.556;24.570;2024-03-02T01:04:24;2.70;;;0.50;;
84031;SDS011;74113;46.556;24.570;2024-03-02T01:06:52;3.10;;;1.20;;
84031;SDS011;74113;46.556;24.570;2024-03-02T01:09:22;2.20;;;0.60;;
84031;SDS011;74113;46.556;24.570;2024-03-02T01:11:50;3.00;;;0.80;;
84031;SDS011;74113;46.556;24.570;2024-03-02T01:14:19;2.70;;;0.90;;
84031;SDS011;74113;46.556;24.570;2024-03-02T01:16:47;2.20;;;0.80;;
84031;SDS011;74113;46.556;24.570;2024-03-02T01:19:17;1.90;;;1.10;;
84031;SDS011;74113;46.556;24.570;2024-03-02T01:21:46;3.10;;;1.20;;
84031;SDS011;74113;46.556;24.570;2024-03-02T01:24:14;4.80;;;1.80;;
84031;SDS011;74113;46.556;24.570;2024-03-02T01:26:43;3.50;;;2.80;;
84031;SDS011;74113;46.556;24.570;2024-03-02T01:29:11;3.30;;;1.40;;
84031;SDS011;74113;46.556;24.570;2024-03-02T01:31:40;4.30;;;3.90;;
84031;SDS011;74113;46.556;24.570;2024-03-02T01:34:10;3.40;;;0.90;;
84031;SDS011;74113;46.556;24.570;2024-03-02T01:36:41;2.20;;;0.80;;
84031;SDS011;74113;46.556;24.570;2024-03-02T01:39:09;3.00;;;2.40;;
84031;SDS011;74113;46.556;24.570;2024-03-02T01:41:38;2.30;;;1.30;;
84031;SDS011;74113;46.556;24.570;2024-03-02T01:44:07;2.10;;;0.70;;
84031;SDS011;74113;46.556;24.570;2024-03-02T01:46:35;2.30;;;0.90;;
84031;SDS011;74113;46.556;24.570;2024-03-02T01:49:04;3.40;;;1.50;;
84031;SDS011;74113;46.556;24.570;2024-03-02T01:51:32;3.90;;;1.70;;
84031;SDS011;74113;46.556;24.570;2024-03-02T01:54:01;2.40;;;0.80;;
84031;SDS011;74113;46.556;24.570;2024-03-02T01:56:30;3.90;;;1.40;;
84031;SDS011;74113;46.556;24.570;2024-03-02T01:58:58;1.40;;;0.70;;
84031;SDS011;74113;46.556;24.570;2024-03-02T02:01:27;3.60;;;2.40;;
84031;SDS011;74113;46.556;24.570;2024-03-02T02:03:55;2.60;;;0.60;;
84031;SDS011;74113;46.556;24.570;2024-03-02T02:06:24;2.10;;;1.10;;
84031;SDS011;74113;46.556;24.570;2024-03-02T02:08:53;1.70;;;0.90;;
84031;SDS011;74113;46.556;24.570;2024-03-02T02:11:21;1.80;;;0.90;;
84031;SDS011;74113;46.556;24.570;2024-03-02T02:13:50;3.60;;;0.60;;
84031;SDS011;74113;46.556;24.570;2024-03-02T02:16:18;1.40;;;0.80;;
84031;SDS011;74113;46.556;24.570;2024-03-02T02:18:47;4.70;;;1.20;;
84031;SDS011;74113;46.556;24.570;2024-03-02T02:21:16;2.70;;;1.40;;
84031;SDS011;74113;46.556;24.570;2024-03-02T02:23:44;2.50;;;0.30;;
84031;SDS011;74113;46.556;24.570;2024-03-02T02:26:16;1.10;;;0.60;;
84031;SDS011;74113;46.556;24.570;2024-03-02T02:28:45;3.00;;;0.80;;
84031;SDS011;74113;46.556;24.570;2024-03-02T02:31:16;1.80;;;1.50;;
84031;SDS011;74113;46.556;24.570;2024-03-02T02:33:44;1.90;;;0.60;;
84031;SDS011;74113;46.556;24.570;2024-03-02T02:36:13;1.00;;;0.30;;
84031;SDS011;74113;46.556;24.570;2024-03-02T02:38:43;1.70;;;0.90;;
84031;SDS011;74113;46.556;24.570;2024-03-02T02:41:14;1.40;;;0.70;;
84031;SDS011;74113;46.556;24.570;2024-03-02T02:43:43;1.40;;;0.90;;
84031;SDS011;74113;46.556;24.570;2024-03-02T02:46:12;1.70;;;1.00;;
84031;SDS011;74113;46.556;24.570;2024-03-02T02:48:41;2.50;;;1.00;;
84031;SDS011;74113;46.556;24.570;2024-03-02T02:51:09;2.00;;;0.80;;
84031;SDS011;74113;46.556;24.570;2024-03-02T02:53:38;3.00;;;0.40;;
84031;SDS011;74113;46.556;24.570;2024-03-02T02:56:09;2.30;;;2.10;;
84031;SDS011;74113;46.556;24.570;2024-03-02T02:58:39;1.40;;;0.80;;
84031;SDS011;74113;46.556;24.570;2024-03-02T03:01:09;1.50;;;0.70;;
84031;SDS011;74113;46.556;24.570;2024-03-02T03:03:39;3.40;;;2.20;;
84031;SDS011;74113;46.556;24.570;2024-03-02T03:06:07;1.60;;;0.60;;
84031;SDS011;74113;46.556;24.570;2024-03-02T03:08:35;2.20;;;0.90;;
84031;SDS011;74113;46.556;24.570;2024-03-02T03:11:04;1.10;;;0.30;;
84031;SDS011;74113;46.556;24.570;2024-03-02T03:13:34;1.70;;;0.60;;
84031;SDS011;74113;46.556;24.570;2024-03-02T03:16:03;2.80;;;0.90;;
84031;SDS011;74113;46.556;24.570;2024-03-02T03:18:31;1.90;;;0.70;;
84031;SDS011;74113;46.556;24.570;2024-03-02T03:21:00;1.60;;;0.70;;
84031;SDS011;74113;46.556;24.570;2024-03-02T03:23:28;1.60;;;0.80;;
84031;SDS011;74113;46.556;24.570;2024-03-02T03:25:57;2.40;;;1.10;;
84031;SDS011;74113;46.556;24.570;2024-03-02T03:28:25;1.70;;;0.40;;
84031;SDS011;74113;46.556;24.570;2024-03-02T03:30:54;2.50;;;0.90;;
84031;SDS011;74113;46.556;24.570;2024-03-02T03:33:23;2.00;;;0.50;;
84031;SDS011;74113;46.556;24.570;2024-03-02T03:35:52;1.90;;;1.30;;
84031;SDS011;74113;46.556;24.570;2024-03-02T03:38:21;2.30;;;0.90;;
84031;SDS011;74113;46.556;24.570;2024-03-02T03:40:50;4.10;;;1.00;;
84031;SDS011;74113;46.556;24.570;2024-03-02T03:43:18;2.30;;;0.60;;
84031;SDS011;74113;46.556;24.570;2024-03-02T03:45:46;3.30;;;0.30;;
84031;SDS011;74113;46.556;24.570;2024-03-02T03:48:15;3.50;;;0.80;;
84031;SDS011;74113;46.556;24.570;2024-03-02T03:50:44;1.60;;;0.50;;
84031;SDS011;74113;46.556;24.570;2024-03-02T03:53:12;2.70;;;0.80;;
84031;SDS011;74113;46.556;24.570;2024-03-02T03:55:42;1.80;;;0.60;;
84031;SDS011;74113;46.556;24.570;2024-03-02T03:58:11;2.30;;;1.10;;
84031;SDS011;74113;46.556;24.570;2024-03-02T04:00:39;2.50;;;1.60;;
84031;SDS011;74113;46.556;24.570;2024-03-02T04:03:08;1.30;;;0.30;;
84031;SDS011;74113;46.556;24.570;2024-03-02T04:05:36;2.80;;;0.60;;
84031;SDS011;74113;46.556;24.570;2024-03-02T04:08:06;1.40;;;0.90;;
84031;SDS011;74113;46.556;24.570;2024-03-02T04:10:35;2.40;;;0.60;;
84031;SDS011;74113;46.556;24.570;2024-03-02T04:13:03;1.70;;;0.40;;
84031;SDS011;74113;46.556;24.570;2024-03-02T04:15:32;3.00;;;0.80;;
84031;SDS011;74113;46.556;24.570;2024-03-02T04:18:00;2.10;;;0.70;;
84031;SDS011;74113;46.556;24.570;2024-03-02T04:20:30;2.30;;;0.80;;
84031;SDS011;74113;46.556;24.570;2024-03-02T04:22:58;2.30;;;1.70;;
84031;SDS011;74113;46.556;24.570;2024-03-02T04:27:55;1.90;;;0.70;;
84031;SDS011;74113;46.556;24.570;2024-03-02T04:30:23;2.30;;;1.20;;
84031;SDS011;74113;46.556;24.570;2024-03-02T04:32:53;3.20;;;0.80;;
84031;SDS011;74113;46.556;24.570;2024-03-02T04:35:21;3.60;;;1.20;;
84031;SDS011;74113;46.556;24.570;2024-03-02T04:37:50;1.70;;;0.70;;
84031;SDS011;74113;46.556;24.570;2024-03-02T04:40:18;2.70;;;0.90;;
84031;SDS011;74113;46.556;24.570;2024-03-02T04:42:46;2.40;;;1.20;;
84031;SDS011;74113;46.556;24.570;2024-03-02T04:45:15;3.60;;;1.90;;
84031;SDS011;74113;46.556;24.570;2024-03-02T04:47:43;4.00;;;1.70;;
84031;SDS011;74113;46.556;24.570;2024-03-02T04:50:16;6.40;;;2.50;;
84031;SDS011;74113;46.556;24.570;2024-03-02T04:52:44;4.80;;;1.40;;
84031;SDS011;74113;46.556;24.570;2024-03-02T04:55:13;3.20;;;1.10;;
84031;SDS011;74113;46.556;24.570;2024-03-02T04:57:44;8.30;;;1.80;;
84031;SDS011;74113;46.556;24.570;2024-03-02T05:00:14;2.60;;;1.20;;
84031;SDS011;74113;46.556;24.570;2024-03-02T05:02:43;5.30;;;1.30;;
84031;SDS011;74113;46.556;24.570;2024-03-02T05:05:11;2.20;;;1.10;;
84031;SDS011;74113;46.556;24.570;2024-03-02T05:07:40;3.10;;;1.70;;
84031;SDS011;74113;46.556;24.570;2024-03-02T05:10:10;6.10;;;1.40;;
84031;SDS011;74113;46.556;24.570;2024-03-02T05:12:39;3.10;;;1.10;;
84031;SDS011;74113;46.556;24.570;2024-03-02T05:15:12;3.80;;;2.30;;
84031;SDS011;74113;46.556;24.570;2024-03-02T05:17:41;3.30;;;1.70;;
84031;SDS011;74113;46.556;24.570;2024-03-02T05:20:14;4.50;;;1.60;;
84031;SDS011;74113;46.556;24.570;2024-03-02T05:22:42;4.70;;;1.80;;
84031;SDS011;74113;46.556;24.570;2024-03-02T05:25:10;7.60;;;1.90;;
84031;SDS011;74113;46.556;24.570;2024-03-02T05:27:39;4.40;;;2.10;;
84031;SDS011;74113;46.556;24.570;2024-03-02T05:30:08;4.50;;;2.80;;
84031;SDS011;74113;46.556;24.570;2024-03-02T05:32:38;4.60;;;1.30;;
84031;SDS011;74113;46.556;24.570;2024-03-02T05:35:06;5.20;;;1.40;;
84031;SDS011;74113;46.556;24.570;2024-03-02T05:37:35;3.20;;;1.70;;
84031;SDS011;74113;46.556;24.570;2024-03-02T05:40:04;5.20;;;2.30;;
84031;SDS011;74113;46.556;24.570;2024-03-02T05:42:34;3.10;;;1.60;;
84031;SDS011;74113;46.556;24.570;2024-03-02T05:45:03;4.50;;;1.30;;
84031;SDS011;74113;46.556;24.570;2024-03-02T05:47:32;5.80;;;2.00;;
84031;SDS011;74113;46.556;24.570;2024-03-02T05:50:01;4.20;;;1.90;;
84031;SDS011;74113;46.556;24.570;2024-03-02T05:52:32;4.50;;;1.60;;
84031;SDS011;74113;46.556;24.570;2024-03-02T05:55:00;4.00;;;1.60;;
84031;SDS011;74113;46.556;24.570;2024-03-02T05:57:29;4.20;;;2.40;;
84031;SDS011;74113;46.556;24.570;2024-03-02T06:00:17;4.70;;;2.50;;
84031;SDS011;74113;46.556;24.570;2024-03-02T06:02:46;4.70;;;1.80;;
84031;SDS011;74113;46.556;24.570;2024-03-02T06:05:15;4.00;;;1.10;;
84031;SDS011;74113;46.556;24.570;2024-03-02T06:07:45;4.00;;;2.30;;
84031;SDS011;74113;46.556;24.570;2024-03-02T06:10:14;5.10;;;2.20;;
84031;SDS011;74113;46.556;24.570;2024-03-02T06:12:43;4.80;;;2.80;;
84031;SDS011;74113;46.556;24.570;2024-03-02T06:15:11;3.80;;;2.80;;
84031;SDS011;74113;46.556;24.570;2024-03-02T06:17:40;4.80;;;2.80;;
84031;SDS011;74113;46.556;24.570;2024-03-02T06:20:09;3.40;;;1.40;;
84031;SDS011;74113;46.556;24.570;2024-03-02T06:22:37;4.60;;;2.30;;
84031;SDS011;74113;46.556;24.570;2024-03-02T06:25:07;3.30;;;1.40;;
84031;SDS011;74113;46.556;24.570;2024-03-02T06:27:36;3.40;;;1.60;;
84031;SDS011;74113;46.556;24.570;2024-03-02T06:30:05;4.00;;;1.20;;
84031;SDS011;74113;46.556;24.570;2024-03-02T06:32:34;4.50;;;2.10;;
84031;SDS011;74113;46.556;24.570;2024-03-02T06:35:03;4.60;;;1.60;;
84031;SDS011;74113;46.556;24.570;2024-03-02T06:37:34;4.20;;;2.10;;
84031;SDS011;74113;46.556;24.570;2024-03-02T06:40:02;2.60;;;1.20;;
84031;SDS011;74113;46.556;24.570;2024-03-02T06:42:31;4.10;;;1.80;;
84031;SDS011;74113;46.556;24.570;2024-03-02T06:45:02;5.40;;;3.40;;
84031;SDS011;74113;46.556;24.570;2024-03-02T06:47:31;4.50;;;2.80;;
84031;SDS011;74113;46.556;24.570;2024-03-02T06:50:00;6.30;;;3.10;;
84031;SDS011;74113;46.556;24.570;2024-03-02T06:52:28;11.10;;;3.00;;
84031;SDS011;74113;46.556;24.570;2024-03-02T06:54:57;7.70;;;2.80;;
84031;SDS011;74113;46.556;24.570;2024-03-02T06:57:26;5.00;;;1.70;;
84031;SDS011;74113;46.556;24.570;2024-03-02T06:59:55;6.20;;;2.10;;
84031;SDS011;74113;46.556;24.570;2024-03-02T07:02:27;7.20;;;5.20;;
84031;SDS011;74113;46.556;24.570;2024-03-02T07:04:56;7.30;;;2.60;;
84031;SDS011;74113;46.556;24.570;2024-03-02T07:07:24;6.20;;;2.40;;
84031;SDS011;74113;46.556;24.570;2024-03-02T07:09:53;8.30;;;5.50;;
84031;SDS011;74113;46.556;24.570;2024-03-02T07:12:22;7.10;;;3.00;;
84031;SDS011;74113;46.556;24.570;2024-03-02T07:14:50;8.60;;;4.30;;
84031;SDS011;74113;46.556;24.570;2024-03-02T07:17:39;8.50;;;4.70;;
84031;SDS011;74113;46.556;24.570;2024-03-02T07:20:07;9.00;;;4.90;;
84031;SDS011;74113;46.556;24.570;2024-03-02T07:22:37;6.50;;;2.70;;
84031;SDS011;74113;46.556;24.570;2024-03-02T07:25:09;8.10;;;4.00;;
84031;SDS011;74113;46.556;24.570;2024-03-02T07:27:59;11.00;;;5.40;;
84031;SDS011;74113;46.556;24.570;2024-03-02T07:30:28;6.90;;;3.40;;
84031;SDS011;74113;46.556;24.570;2024-03-02T07:32:59;9.20;;;5.00;;
84031;SDS011;74113;46.556;24.570;2024-03-02T07:35:28;11.10;;;5.20;;
84031;SDS011;74113;46.556;24.570;2024-03-02T07:37:56;8.10;;;3.80;;
84031;SDS011;74113;46.556;24.570;2024-03-02T07:40:24;10.70;;;4.50;;
84031;SDS011;74113;46.556;24.570;2024-03-02T07:42:53;5.90;;;2.80;;
84031;SDS011;74113;46.556;24.570;2024-03-02T07:45:23;9.00;;;6.10;;
84031;SDS011;74113;46.556;24.570;2024-03-02T07:47:52;7.80;;;4.30;;
84031;SDS011;74113;46.556;24.570;2024-03-02T07:50:21;6.10;;;3.40;;
84031;SDS011;74113;46.556;24.570;2024-03-02T07:52:50;6.90;;;5.00;;
84031;SDS011;74113;46.556;24.570;2024-03-02T07:55:18;7.00;;;4.50;;
84031;SDS011;74113;46.556;24.570;2024-03-02T07:57:47;5.10;;;2.60;;
84031;SDS011;74113;46.556;24.570;2024-03-02T08:00:16;6.10;;;4.50;;
84031;SDS011;74113;46.556;24.570;2024-03-02T08:02:45;8.30;;;4.00;;
84031;SDS011;74113;46.556;24.570;2024-03-02T08:05:14;5.90;;;3.40;;
84031;SDS011;74113;46.556;24.570;2024-03-02T08:07:44;4.70;;;2.50;;
84031;SDS011;74113;46.556;24.570;2024-03-02T08:10:13;4.80;;;2.70;;
84031;SDS011;74113;46.556;24.570;2024-03-02T08:12:43;6.10;;;4.60;;
84031;SDS011;74113;46.556;24.570;2024-03-02T08:15:11;4.60;;;2.60;;
84031;SDS011;74113;46.556;24.570;2024-03-02T08:17:43;5.60;;;3.50;;
84031;SDS011;74113;46.556;24.570;2024-03-02T08:20:18;6.40;;;2.50;;
84031;SDS011;74113;46.556;24.570;2024-03-02T08:22:47;5.20;;;2.30;;
84031;SDS011;74113;46.556;24.570;2024-03-02T08:25:16;4.70;;;2.00;;
84031;SDS011;74113;46.556;24.570;2024-03-02T08:27:45;5.60;;;4.00;;
84031;SDS011;74113;46.556;24.570;2024-03-02T08:30:14;6.60;;;2.80;;
84031;SDS011;74113;46.556;24.570;2024-03-02T08:32:43;6.60;;;3.00;;
84031;SDS011;74113;46.556;24.570;2024-03-02T08:35:15;4.40;;;3.00;;
84031;SDS011;74113;46.556;24.570;2024-03-02T08:37:45;4.80;;;1.80;;
84031;SDS011;74113;46.556;24.570;2024-03-02T08:40:13;4.20;;;1.90;;
84031;SDS011;74113;46.556;24.570;2024-03-02T08:42:46;4.30;;;2.00;;
84031;SDS011;74113;46.556;24.570;2024-03-02T08:45:15;3.50;;;1.70;;
84031;SDS011;74113;46.556;24.570;2024-03-02T08:47:44;4.40;;;1.60;;
84031;SDS011;74113;46.556;24.570;2024-03-02T08:50:13;2.20;;;1.20;;
84031;SDS011;74113;46.556;24.570;2024-03-02T08:52:42;2.70;;;1.50;;
84031;SDS011;74113;46.556;24.570;2024-03-02T08:55:11;2.80;;;1.30;;
84031;SDS011;74113;46.556;24.570;2024-03-02T08:57:40;2.40;;;2.00;;
84031;SDS011;74113;46.556;24.570;2024-03-02T09:00:10;2.70;;;1.20;;
84031;SDS011;74113;46.556;24.570;2024-03-02T09:02:40;2.80;;;1.00;;
84031;SDS011;74113;46.556;24.570;2024-03-02T09:05:08;3.40;;;1.90;;
84031;SDS011;74113;46.556;24.570;2024-03-02T09:07:37;3.00;;;2.40;;
84031;SDS011;74113;46.556;24.570;2024-03-02T09:10:09;2.50;;;1.30;;
84031;SDS011;74113;46.556;24.570;2024-03-02T09:12:38;2.20;;;1.00;;
84031;SDS011;74113;46.556;24.570;2024-03-02T09:15:08;3.10;;;2.20;;
84031;SDS011;74113;46.556;24.570;2024-03-02T09:17:37;9.10;;;1.90;;
84031;SDS011;74113;46.556;24.570;2024-03-02T09:20:07;1.60;;;0.90;;
84031;SDS011;74113;46.556;24.570;2024-03-02T09:22:36;1.90;;;0.60;;
84031;SDS011;74113;46.556;24.570;2024-03-02T09:25:04;2.80;;;0.90;;
84031;SDS011;74113;46.556;24.570;2024-03-02T09:27:37;3.70;;;1.80;;
84031;SDS011;74113;46.556;24.570;2024-03-02T09:30:09;1.50;;;1.40;;
84031;SDS011;74113;46.556;24.570;2024-03-02T09:32:38;1.90;;;0.90;;
84031;SDS011;74113;46.556;24.570;2024-03-02T09:35:07;3.20;;;1.30;;
84031;SDS011;74113;46.556;24.570;2024-03-02T09:37:37;3.00;;;1.50;;
84031;SDS011;74113;46.556;24.570;2024-03-02T09:40:07;1.80;;;0.70;;
84031;SDS011;74113;46.556;24.570;2024-03-02T09:42:36;1.50;;;1.00;;
84031;SDS011;74113;46.556;24.570;2024-03-02T09:45:06;2.10;;;1.10;;
84031;SDS011;74113;46.556;24.570;2024-03-02T09:47:36;2.10;;;0.60;;
84031;SDS011;74113;46.556;24.570;2024-03-02T09:50:07;3.00;;;2.60;;
84031;SDS011;74113;46.556;24.570;2024-03-02T09:52:35;2.10;;;1.10;;
84031;SDS011;74113;46.556;24.570;2024-03-02T09:55:05;3.30;;;1.50;;
84031;SDS011;74113;46.556;24.570;2024-03-02T09:57:34;3.30;;;0.90;;
84031;SDS011;74113;46.556;24.570;2024-03-02T10:00:06;2.10;;;0.60;;
84031;SDS011;74113;46.556;24.570;2024-03-02T10:02:35;2.60;;;1.50;;
84031;SDS011;74113;46.556;24.570;2024-03-02T10:05:04;3.40;;;1.00;;
84031;SDS011;74113;46.556;24.570;2024-03-02T10:07:32;2.10;;;0.90;;
84031;SDS011;74113;46.556;24.570;2024-03-02T10:10:14;4.60;;;1.70;;
84031;SDS011;74113;46.556;24.570;2024-03-02T10:12:43;1.20;;;0.50;;
84031;SDS011;74113;46.556;24.570;2024-03-02T10:15:12;3.50;;;0.80;;
84031;SDS011;74113;46.556;24.570;2024-03-02T10:17:40;4.40;;;1.80;;
84031;SDS011;74113;46.556;24.570;2024-03-02T10:20:21;2.00;;;0.60;;
84031;SDS011;74113;46.556;24.570;2024-03-02T10:22:51;2.90;;;1.30;;
84031;SDS011;74113;46.556;24.570;2024-03-02T10:25:33;4.30;;;1.10;;
84031;SDS011;74113;46.556;24.570;2024-03-02T10:28:05;2.90;;;1.20;;
84031;SDS011;74113;46.556;24.570;2024-03-02T10:30:34;2.70;;;1.30;;
84031;SDS011;74113;46.556;24.570;2024-03-02T10:33:05;3.10;;;1.80;;
84031;SDS011;74113;46.556;24.570;2024-03-02T10:35:35;7.60;;;2.70;;
84031;SDS011;74113;46.556;24.570;2024-03-02T10:38:05;3.20;;;1.60;;
84031;SDS011;74113;46.556;24.570;2024-03-02T10:40:35;2.40;;;1.20;;
84031;SDS011;74113;46.556;24.570;2024-03-02T10:43:04;2.30;;;0.80;;
84031;SDS011;74113;46.556;24.570;2024-03-02T10:45:34;2.10;;;0.60;;
84031;SDS011;74113;46.556;24.570;2024-03-02T10:48:03;2.70;;;1.30;;
84031;SDS011;74113;46.556;24.570;2024-03-02T10:50:33;2.40;;;1.00;;
84031;SDS011;74113;46.556;24.570;2024-03-02T10:53:02;4.40;;;1.20;;
84031;SDS011;74113;46.556;24.570;2024-03-02T10:55:32;3.10;;;1.10;;
84031;SDS011;74113;46.556;24.570;2024-03-02T10:58:01;4.80;;;1.50;;
84031;SDS011;74113;46.556;24.570;2024-03-02T11:00:35;4.10;;;1.20;;
84031;SDS011;74113;46.556;24.570;2024-03-02T11:03:07;2.20;;;1.00;;
84031;SDS011;74113;46.556;24.570;2024-03-02T11:05:38;3.50;;;1.20;;
84031;SDS011;74113;46.556;24.570;2024-03-02T11:08:13;3.80;;;2.50;;
84031;SDS011;74113;46.556;24.570;2024-03-02T11:10:57;2.20;;;1.10;;
84031;SDS011;74113;46.556;24.570;2024-03-02T11:13:32;2.90;;;0.80;;
84031;SDS011;74113;46.556;24.570;2024-03-02T11:16:19;2.10;;;0.70;;
84031;SDS011;74113;46.556;24.570;2024-03-02T11:19:07;2.60;;;1.30;;
84031;SDS011;74113;46.556;24.570;2024-03-02T11:21:41;2.70;;;2.10;;
84031;SDS011;74113;46.556;24.570;2024-03-02T11:26:50;4.60;;;1.10;;
84031;SDS011;74113;46.556;24.570;2024-03-02T11:32:22;1.70;;;0.60;;
84031;SDS011;74113;46.556;24.570;2024-03-02T11:34:53;5.70;;;1.20;;
84031;SDS011;74113;46.556;24.570;2024-03-02T11:37:22;3.70;;;0.90;;
84031;SDS011;74113;46.556;24.570;2024-03-02T11:39:52;2.50;;;0.80;;
84031;SDS011;74113;46.556;24.570;2024-03-02T11:42:21;2.80;;;1.20;;
84031;SDS011;74113;46.556;24.570;2024-03-02T11:44:50;3.20;;;2.10;;
84031;SDS011;74113;46.556;24.570;2024-03-02T11:47:19;3.90;;;1.10;;
84031;SDS011;74113;46.556;24.570;2024-03-02T11:49:49;3.30;;;0.90;;
84031;SDS011;74113;46.556;24.570;2024-03-02T11:52:20;2.50;;;1.20;;
84031;SDS011;74113;46.556;24.570;2024-03-02T11:54:50;5.10;;;3.10;;
84031;SDS011;74113;46.556;24.570;2024-03-02T11:57:20;4.20;;;1.70;;
84031;SDS011;74113;46.556;24.570;2024-03-02T11:59:55;3.20;;;0.90;;
84031;SDS011;74113;46.556;24.570;2024-03-02T12:02:31;2.10;;;1.00;;
84031;SDS011;74113;46.556;24.570;2024-03-02T12:05:02;3.40;;;0.80;;
84031;SDS011;74113;46.556;24.570;2024-03-02T12:07:32;2.00;;;0.90;;
84031;SDS011;74113;46.556;24.570;2024-03-02T12:10:00;2.60;;;1.10;;
84031;SDS011;74113;46.556;24.570;2024-03-02T12:12:31;1.70;;;0.80;;
84031;SDS011;74113;46.556;24.570;2024-03-02T12:14:59;1.10;;;0.40;;
84031;SDS011;74113;46.556;24.570;2024-03-02T12:17:29;5.00;;;1.00;;
84031;SDS011;74113;46.556;24.570;2024-03-02T12:19:58;2.40;;;1.20;;
84031;SDS011;74113;46.556;24.570;2024-03-02T12:22:27;3.80;;;2.80;;
84031;SDS011;74113;46.556;24.570;2024-03-02T12:24:57;3.00;;;1.20;;
84031;SDS011;74113;46.556;24.570;2024-03-02T12:27:25;2.20;;;1.60;;
84031;SDS011;74113;46.556;24.570;2024-03-02T12:29:54;3.00;;;0.70;;
84031;SDS011;74113;46.556;24.570;2024-03-02T12:32:23;2.30;;;2.10;;
84031;SDS011;74113;46.556;24.570;2024-03-02T12:34:51;3.10;;;0.80;;
84031;SDS011;74113;46.556;24.570;2024-03-02T12:37:21;2.80;;;0.70;;
84031;SDS011;74113;46.556;24.570;2024-03-02T12:39:49;2.60;;;1.20;;
84031;SDS011;74113;46.556;24.570;2024-03-02T12:42:18;2.10;;;1.00;;
84031;SDS011;74113;46.556;24.570;2024-03-02T12:44:46;2.30;;;0.90;;
84031;SDS011;74113;46.556;24.570;2024-03-02T12:47:15;1.40;;;0.30;;
84031;SDS011;74113;46.556;24.570;2024-03-02T12:49:43;1.80;;;0.80;;
84031;SDS011;74113;46.556;24.570;2024-03-02T12:52:13;2.00;;;0.80;;
84031;SDS011;74113;46.556;24.570;2024-03-02T12:54:42;3.20;;;0.60;;
84031;SDS011;74113;46.556;24.570;2024-03-02T12:57:19;2.10;;;0.80;;
84031;SDS011;74113;46.556;24.570;2024-03-02T12:59:48;1.70;;;0.70;;
84031;SDS011;74113;46.556;24.570;2024-03-02T13:02:17;1.90;;;1.40;;
84031;SDS011;74113;46.556;24.570;2024-03-02T13:04:53;2.30;;;0.80;;
84031;SDS011;74113;46.556;24.570;2024-03-02T13:07:25;4.00;;;0.70;;
84031;SDS011;74113;46.556;24.570;2024-03-02T13:09:54;1.70;;;0.70;;
84031;SDS011;74113;46.556;24.570;2024-03-02T13:12:24;2.00;;;0.50;;
84031;SDS011;74113;46.556;24.570;2024-03-02T13:14:53;1.80;;;1.60;;
84031;SDS011;74113;46.556;24.570;2024-03-02T13:17:22;1.30;;;0.50;;
84031;SDS011;74113;46.556;24.570;2024-03-02T13:19:55;3.00;;;1.30;;
84031;SDS011;74113;46.556;24.570;2024-03-02T13:22:25;1.70;;;0.60;;
84031;SDS011;74113;46.556;24.570;2024-03-02T13:24:54;2.30;;;1.20;;
84031;SDS011;74113;46.556;24.570;2024-03-02T13:27:22;3.10;;;0.90;;
84031;SDS011;74113;46.556;24.570;2024-03-02T13:29:51;2.40;;;0.70;;
84031;SDS011;74113;46.556;24.570;2024-03-02T13:32:20;1.80;;;0.70;;
84031;SDS011;74113;46.556;24.570;2024-03-02T13:34:51;4.90;;;2.20;;
84031;SDS011;74113;46.556;24.570;2024-03-02T13:37:20;4.70;;;2.30;;
84031;SDS011;74113;46.556;24.570;2024-03-02T13:39:49;2.90;;;1.40;;
84031;SDS011;74113;46.556;24.570;2024-03-02T13:42:18;2.60;;;1.10;;
84031;SDS011;74113;46.556;24.570;2024-03-02T13:44:47;3.40;;;1.40;;
84031;SDS011;74113;46.556;24.570;2024-03-02T13:47:18;1.90;;;0.80;;
84031;SDS011;74113;46.556;24.570;2024-03-02T13:49:46;4.00;;;1.20;;
84031;SDS011;74113;46.556;24.570;2024-03-02T13:52:17;2.00;;;0.90;;
84031;SDS011;74113;46.556;24.570;2024-03-02T13:54:46;2.80;;;0.90;;
84031;SDS011;74113;46.556;24.570;2024-03-02T13:57:16;2.00;;;1.10;;
84031;SDS011;74113;46.556;24.570;2024-03-02T13:59:51;1.60;;;1.00;;
84031;SDS011;74113;46.556;24.570;2024-03-02T14:02:21;2.10;;;0.60;;
84031;SDS011;74113;46.556;24.570;2024-03-02T14:04:49;1.90;;;0.80;;
84031;SDS011;74113;46.556;24.570;2024-03-02T14:07:19;2.30;;;1.00;;
84031;SDS011;74113;46.556;24.570;2024-03-02T14:09:48;4.10;;;1.00;;
84031;SDS011;74113;46.556;24.570;2024-03-02T14:12:16;3.60;;;0.80;;
84031;SDS011;74113;46.556;24.570;2024-03-02T14:14:45;1.50;;;0.80;;
84031;SDS011;74113;46.556;24.570;2024-03-02T14:17:13;3.20;;;1.00;;
84031;SDS011;74113;46.556;24.570;2024-03-02T14:19:43;2.20;;;2.00;;
84031;SDS011;74113;46.556;24.570;2024-03-02T14:22:12;1.60;;;1.00;;
84031;SDS011;74113;46.556;24.570;2024-03-02T14:24:44;1.80;;;0.70;;
84031;SDS011;74113;46.556;24.570;2024-03-02T14:27:14;1.40;;;0.30;;
84031;SDS011;74113;46.556;24.570;2024-03-02T14:29:59;2.20;;;2.00;;
84031;SDS011;74113;46.556;24.570;2024-03-02T14:32:28;2.00;;;0.50;;
84031;SDS011;74113;46.556;24.570;2024-03-02T14:34:57;3.10;;;2.70;;
84031;SDS011;74113;46.556;24.570;2024-03-02T14:37:26;1.00;;;0.50;;
84031;SDS011;74113;46.556;24.570;2024-03-02T14:39:54;2.70;;;0.70;;
84031;SDS011;74113;46.556;24.570;2024-03-02T14:42:23;1.80;;;0.80;;
84031;SDS011;74113;46.556;24.570;2024-03-02T14:44:52;1.00;;;0.40;;
84031;SDS011;74113;46.556;24.570;2024-03-02T14:47:20;1.70;;;1.40;;
84031;SDS011;74113;46.556;24.570;2024-03-02T14:49:49;1.50;;;0.60;;
84031;SDS011;74113;46.556;24.570;2024-03-02T14:52:17;1.50;;;0.70;;
84031;SDS011;74113;46.556;24.570;2024-03-02T14:54:46;1.20;;;0.40;;
84031;SDS011;74113;46.556;24.570;2024-03-02T14:57:15;2.90;;;2.20;;